sensor_id;sensor_type;location;lat;lon;timestamp;temperature;humidity
55213;DHT22;41083;52.932;6.674;2024-01-15T00:01:47;2.60;99.90
55213;DHT22;41083;52.932;6.674;2024-01-15T00:04:13;2.60;99.90
55213;DHT22;41083;52.932;6.674;2024-01-15T00:06:39;2.60;99.90
55213;DHT22;41083;52.932;6.674;2024-01-15T00:09:04;2.60;99.90
55213;DHT22;41083;52.932;6.674;2024-01-15T00:11:32;2.60;99.90
55213;DHT22;41083;52.932;6.674;2024-01-15T00:13:57;2.60;99.90
55213;DHT22;41083;52.932;6.674;2024-01-15T00:16:24;2.60;99.90
55213;DHT22;41083;52.932;6.674;2024-01-15T00:18:49;2.60;99.90
55213;DHT22;41083;52.932;6.674;2024-01-15T00:21:15;2.60;99.90
55213;DHT22;41083;52.932;6.674;2024-01-15T00:23:44;2.60;99.90
55213;DHT22;41083;52.932;6.674;2024-01-15T00:26:10;2.60;99.90
55213;DHT22;41083;52.932;6.674;2024-01-15T00:28:37;2.60;99.90
55213;DHT22;41083;52.932;6.674;2024-01-15T00:31:04;2.70;99.90
55213;DHT22;41083;52.932;6.674;2024-01-15T00:33:30;2.70;99.90
55213;DHT22;41083;52.932;6.674;2024-01-15T00:35:55;2.70;99.90
55213;DHT22;41083;52.932;6.674;2024-01-15T00:38:21;2.80;99.90
55213;DHT22;41083;52.932;6.674;2024-01-15T00:40:47;2.80;99.90
55213;DHT22;41083;52.932;6.674;2024-01-15T00:43:12;2.80;99.90
55213;DHT22;41083;52.932;6.674;2024-01-15T00:45:38;2.90;99.90
55213;DHT22;41083;52.932;6.674;2024-01-15T00:48:04;2.90;99.90
55213;DHT22;41083;52.932;6.674;2024-01-15T00:50:30;2.90;99.90
55213;DHT22;41083;52.932;6.674;2024-01-15T00:52:56;2.90;99.90
55213;DHT22;41083;52.932;6.674;2024-01-15T00:55:22;3.00;99.90
55213;DHT22;41083;52.932;6.674;2024-01-15T00:57:47;3.00;99.90
55213;DHT22;41083;52.932;6.674;2024-01-15T01:00:13;3.00;99.90
55213;DHT22;41083;52.932;6.674;2024-01-15T01:02:39;3.00;99.90
55213;DHT22;41083;52.932;6.674;2024-01-15T01:05:05;3.00;99.90
55213;DHT22;41083;52.932;6.674;2024-01-15T01:07:31;3.00;99.90
55213;DHT22;41083;52.932;6.674;2024-01-15T01:09:56;3.00;99.90
55213;DHT22;41083;52.932;6.674;2024-01-15T01:12:22;3.00;99.90
55213;DHT22;41083;52.932;6.674;2024-01-15T01:14:47;3.00;99.90
55213;DHT22;41083;52.932;6.674;2024-01-15T01:17:13;3.00;99.90
55213;DHT22;41083;52.932;6.674;2024-01-15T01:19:39;3.00;99.90
55213;DHT22;41083;52.932;6.674;2024-01-15T01:22:04;3.00;99.90
55213;DHT22;41083;52.932;6.674;2024-01-15T01:24:30;2.90;99.90
55213;DHT22;41083;52.932;6.674;2024-01-15T01:26:56;2.90;99.90
55213;DHT22;41083;52.932;6.674;2024-01-15T01:29:21;3.00;99.90
55213;DHT22;41083;52.932;6.674;2024-01-15T01:31:48;3.00;99.90
55213;DHT22;41083;52.932;6.674;2024-01-15T01:34:15;2.90;99.90
55213;DHT22;41083;52.932;6.674;2024-01-15T01:36:42;2.90;99.90
55213;DHT22;41083;52.932;6.674;2024-01-15T01:39:08;2.90;99.90
55213;DHT22;41083;52.932;6.674;2024-01-15T01:41:35;2.90;99.90
55213;DHT22;41083;52.932;6.674;2024-01-15T01:44:00;2.80;99.90
55213;DHT22;41083;52.932;6.674;2024-01-15T01:46:27;2.80;99.90
55213;DHT22;41083;52.932;6.674;2024-01-15T01:48:54;2.80;99.90
55213;DHT22;41083;52.932;6.674;2024-01-15T01:51:22;2.70;99.90
55213;DHT22;41083;52.932;6.674;2024-01-15T01:53:49;2.70;99.90
55213;DHT22;41083;52.932;6.674;2024-01-15T01:56:15;2.70;99.90
55213;DHT22;41083;52.932;6.674;2024-01-15T01:58:43;2.70;99.90
55213;DHT22;41083;52.932;6.674;2024-01-15T02:01:09;2.70;99.90
55213;DHT22;41083;52.932;6.674;2024-01-15T02:03:35;2.60;99.90
55213;DHT22;41083;52.932;6.674;2024-01-15T02:06:00;2.60;99.90
55213;DHT22;41083;52.932;6.674;2024-01-15T02:08:26;2.60;99.90
55213;DHT22;41083;52.932;6.674;2024-01-15T02:10:52;2.60;99.90
55213;DHT22;41083;52.932;6.674;2024-01-15T02:13:18;2.60;99.90
55213;DHT22;41083;52.932;6.674;2024-01-15T02:15:44;2.60;99.90
55213;DHT22;41083;52.932;6.674;2024-01-15T02:18:10;2.60;99.90
55213;DHT22;41083;52.932;6.674;2024-01-15T02:20:36;2.50;99.90
55213;DHT22;41083;52.932;6.674;2024-01-15T02:25:40;2.50;99.90
55213;DHT22;41083;52.932;6.674;2024-01-15T02:28:08;2.50;99.90
55213;DHT22;41083;52.932;6.674;2024-01-15T02:30:38;2.50;99.90
55213;DHT22;41083;52.932;6.674;2024-01-15T02:33:05;2.50;99.90
55213;DHT22;41083;52.932;6.674;2024-01-15T02:35:30;2.40;99.90
55213;DHT22;41083;52.932;6.674;2024-01-15T02:37:56;2.40;99.90
55213;DHT22;41083;52.932;6.674;2024-01-15T02:40:22;2.40;99.90
55213;DHT22;41083;52.932;6.674;2024-01-15T02:42:48;2.40;99.90
55213;DHT22;41083;52.932;6.674;2024-01-15T02:45:14;2.40;99.90
55213;DHT22;41083;52.932;6.674;2024-01-15T02:47:39;2.40;99.90
55213;DHT22;41083;52.932;6.674;2024-01-15T02:50:05;2.40;99.90
55213;DHT22;41083;52.932;6.674;2024-01-15T02:52:31;2.40;99.90
55213;DHT22;41083;52.932;6.674;2024-01-15T02:54:57;2.50;99.90
55213;DHT22;41083;52.932;6.674;2024-01-15T02:57:22;2.50;99.90
55213;DHT22;41083;52.932;6.674;2024-01-15T02:59:48;2.50;99.90
55213;DHT22;41083;52.932;6.674;2024-01-15T03:02:13;2.50;99.90
55213;DHT22;41083;52.932;6.674;2024-01-15T03:04:43;2.50;99.90
55213;DHT22;41083;52.932;6.674;2024-01-15T03:07:09;2.50;99.90
55213;DHT22;41083;52.932;6.674;2024-01-15T03:09:34;2.50;99.90
55213;DHT22;41083;52.932;6.674;2024-01-15T03:12:00;2.50;99.90
55213;DHT22;41083;52.932;6.674;2024-01-15T03:14:27;2.50;99.90
55213;DHT22;41083;52.932;6.674;2024-01-15T03:16:53;2.50;99.90
55213;DHT22;41083;52.932;6.674;2024-01-15T03:19:19;2.60;99.90
55213;DHT22;41083;52.932;6.674;2024-01-15T03:21:45;2.50;99.90
55213;DHT22;41083;52.932;6.674;2024-01-15T03:24:10;2.50;99.90
55213;DHT22;41083;52.932;6.674;2024-01-15T03:26:37;2.50;99.90
55213;DHT22;41083;52.932;6.674;2024-01-15T03:29:03;2.50;99.90
55213;DHT22;41083;52.932;6.674;2024-01-15T03:31:28;2.50;99.90
55213;DHT22;41083;52.932;6.674;2024-01-15T03:33:55;2.60;99.90
55213;DHT22;41083;52.932;6.674;2024-01-15T03:36:21;2.60;99.90
55213;DHT22;41083;52.932;6.674;2024-01-15T03:38:47;2.50;99.90
55213;DHT22;41083;52.932;6.674;2024-01-15T03:41:12;2.60;99.90
55213;DHT22;41083;52.932;6.674;2024-01-15T03:43:38;2.60;99.90
55213;DHT22;41083;52.932;6.674;2024-01-15T03:46:05;2.60;99.90
55213;DHT22;41083;52.932;6.674;2024-01-15T03:48:31;2.60;99.90
55213;DHT22;41083;52.932;6.674;2024-01-15T03:50:56;2.60;99.90
55213;DHT22;41083;52.932;6.674;2024-01-15T03:53:22;2.60;99.90
55213;DHT22;41083;52.932;6.674;2024-01-15T03:55:48;2.70;99.90
55213;DHT22;41083;52.932;6.674;2024-01-15T03:58:14;2.60;99.90
55213;DHT22;41083;52.932;6.674;2024-01-15T04:00:42;2.70;99.90
55213;DHT22;41083;52.932;6.674;2024-01-15T04:03:08;2.60;99.90
55213;DHT22;41083;52.932;6.674;2024-01-15T04:05:33;2.60;99.90
55213;DHT22;41083;52.932;6.674;2024-01-15T04:08:00;2.70;99.90
55213;DHT22;41083;52.932;6.674;2024-01-15T04:10:26;2.70;99.90
55213;DHT22;41083;52.932;6.674;2024-01-15T04:12:52;2.70;99.90
55213;DHT22;41083;52.932;6.674;2024-01-15T04:15:18;2.70;99.90
55213;DHT22;41083;52.932;6.674;2024-01-15T04:17:43;2.70;99.90
55213;DHT22;41083;52.932;6.674;2024-01-15T04:20:09;2.70;99.90
55213;DHT22;41083;52.932;6.674;2024-01-15T04:22:35;2.70;99.90
55213;DHT22;41083;52.932;6.674;2024-01-15T04:25:03;2.80;99.90
55213;DHT22;41083;52.932;6.674;2024-01-15T04:27:30;2.80;99.90
55213;DHT22;41083;52.932;6.674;2024-01-15T04:29:55;2.80;99.90
55213;DHT22;41083;52.932;6.674;2024-01-15T04:32:21;2.80;99.90
55213;DHT22;41083;52.932;6.674;2024-01-15T04:34:46;2.80;99.90
55213;DHT22;41083;52.932;6.674;2024-01-15T04:37:13;2.80;99.90
55213;DHT22;41083;52.932;6.674;2024-01-15T04:39:39;2.80;99.90
55213;DHT22;41083;52.932;6.674;2024-01-15T04:42:05;2.70;99.90
55213;DHT22;41083;52.932;6.674;2024-01-15T04:44:31;2.80;99.90
55213;DHT22;41083;52.932;6.674;2024-01-15T04:46:56;2.70;99.90
55213;DHT22;41083;52.932;6.674;2024-01-15T04:49:22;2.70;99.90
55213;DHT22;41083;52.932;6.674;2024-01-15T04:51:48;2.70;99.90
55213;DHT22;41083;52.932;6.674;2024-01-15T04:54:13;2.70;99.90
55213;DHT22;41083;52.932;6.674;2024-01-15T04:56:46;2.60;99.90
55213;DHT22;41083;52.932;6.674;2024-01-15T04:59:13;2.70;99.90
55213;DHT22;41083;52.932;6.674;2024-01-15T05:01:40;2.60;99.90
55213;DHT22;41083;52.932;6.674;2024-01-15T05:04:05;2.60;99.90
55213;DHT22;41083;52.932;6.674;2024-01-15T05:06:31;2.60;99.90
55213;DHT22;41083;52.932;6.674;2024-01-15T05:08:57;2.60;99.90
55213;DHT22;41083;52.932;6.674;2024-01-15T05:11:23;2.60;99.90
55213;DHT22;41083;52.932;6.674;2024-01-15T05:13:48;2.60;99.90
55213;DHT22;41083;52.932;6.674;2024-01-15T05:16:14;2.60;99.90
55213;DHT22;41083;52.932;6.674;2024-01-15T05:18:40;2.60;99.90
55213;DHT22;41083;52.932;6.674;2024-01-15T05:21:05;2.50;99.90
55213;DHT22;41083;52.932;6.674;2024-01-15T05:23:31;2.50;99.90
55213;DHT22;41083;52.932;6.674;2024-01-15T05:25:57;2.50;99.90
55213;DHT22;41083;52.932;6.674;2024-01-15T05:28:23;2.50;99.90
55213;DHT22;41083;52.932;6.674;2024-01-15T05:30:48;2.50;99.90
55213;DHT22;41083;52.932;6.674;2024-01-15T05:33:16;2.50;99.90
55213;DHT22;41083;52.932;6.674;2024-01-15T05:35:43;2.40;99.90
55213;DHT22;41083;52.932;6.674;2024-01-15T05:38:08;2.50;99.90
55213;DHT22;41083;52.932;6.674;2024-01-15T05:40:34;2.50;99.90
55213;DHT22;41083;52.932;6.674;2024-01-15T05:43:00;2.50;99.90
55213;DHT22;41083;52.932;6.674;2024-01-15T05:45:30;2.50;99.90
55213;DHT22;41083;52.932;6.674;2024-01-15T05:47:56;2.50;99.90
55213;DHT22;41083;52.932;6.674;2024-01-15T05:50:22;2.50;99.90
55213;DHT22;41083;52.932;6.674;2024-01-15T05:52:47;2.50;99.90
55213;DHT22;41083;52.932;6.674;2024-01-15T05:55:13;2.40;99.90
55213;DHT22;41083;52.932;6.674;2024-01-15T05:57:39;2.50;99.90
55213;DHT22;41083;52.932;6.674;2024-01-15T06:00:05;2.40;99.90
55213;DHT22;41083;52.932;6.674;2024-01-15T06:02:31;2.40;99.90
55213;DHT22;41083;52.932;6.674;2024-01-15T06:04:57;2.40;99.90
55213;DHT22;41083;52.932;6.674;2024-01-15T06:07:23;2.30;99.90
55213;DHT22;41083;52.932;6.674;2024-01-15T06:09:48;2.30;99.90
55213;DHT22;41083;52.932;6.674;2024-01-15T06:12:14;2.30;99.90
55213;DHT22;41083;52.932;6.674;2024-01-15T06:14:40;2.30;99.90
55213;DHT22;41083;52.932;6.674;2024-01-15T06:17:07;2.30;99.90
55213;DHT22;41083;52.932;6.674;2024-01-15T06:19:32;2.20;99.90
55213;DHT22;41083;52.932;6.674;2024-01-15T06:21:58;2.20;99.90
55213;DHT22;41083;52.932;6.674;2024-01-15T06:24:24;2.20;99.90
55213;DHT22;41083;52.932;6.674;2024-01-15T06:26:49;2.20;99.90
55213;DHT22;41083;52.932;6.674;2024-01-15T06:29:15;2.20;99.90
55213;DHT22;41083;52.932;6.674;2024-01-15T06:31:41;2.20;99.90
55213;DHT22;41083;52.932;6.674;2024-01-15T06:34:06;2.20;99.90
55213;DHT22;41083;52.932;6.674;2024-01-15T06:36:32;2.20;99.90
55213;DHT22;41083;52.932;6.674;2024-01-15T06:38:58;2.20;99.90
55213;DHT22;41083;52.932;6.674;2024-01-15T06:41:23;2.20;99.90
55213;DHT22;41083;52.932;6.674;2024-01-15T06:43:51;2.20;99.90
55213;DHT22;41083;52.932;6.674;2024-01-15T06:46:20;2.20;99.90
55213;DHT22;41083;52.932;6.674;2024-01-15T06:48:46;2.20;99.90
55213;DHT22;41083;52.932;6.674;2024-01-15T06:51:12;2.10;99.90
55213;DHT22;41083;52.932;6.674;2024-01-15T06:53:38;2.10;99.90
55213;DHT22;41083;52.932;6.674;2024-01-15T06:56:04;2.10;99.90
55213;DHT22;41083;52.932;6.674;2024-01-15T06:58:33;2.10;99.90
55213;DHT22;41083;52.932;6.674;2024-01-15T07:00:59;2.10;99.90
55213;DHT22;41083;52.932;6.674;2024-01-15T07:03:25;2.10;99.90
55213;DHT22;41083;52.932;6.674;2024-01-15T07:05:50;2.20;99.90
55213;DHT22;41083;52.932;6.674;2024-01-15T07:08:16;2.10;99.90
55213;DHT22;41083;52.932;6.674;2024-01-15T07:10:43;2.20;99.90
55213;DHT22;41083;52.932;6.674;2024-01-15T07:13:09;2.10;99.90
55213;DHT22;41083;52.932;6.674;2024-01-15T07:15:34;2.10;99.90
55213;DHT22;41083;52.932;6.674;2024-01-15T07:18:00;2.10;99.90
55213;DHT22;41083;52.932;6.674;2024-01-15T07:20:26;2.10;99.90
55213;DHT22;41083;52.932;6.674;2024-01-15T07:22:51;2.10;99.90
55213;DHT22;41083;52.932;6.674;2024-01-15T07:25:17;2.10;99.90
55213;DHT22;41083;52.932;6.674;2024-01-15T07:27:43;2.10;99.90
55213;DHT22;41083;52.932;6.674;2024-01-15T07:30:11;2.10;99.90
55213;DHT22;41083;52.932;6.674;2024-01-15T07:32:37;2.10;99.90
55213;DHT22;41083;52.932;6.674;2024-01-15T07:35:04;2.10;99.90
55213;DHT22;41083;52.932;6.674;2024-01-15T07:37:29;2.10;99.90
55213;DHT22;41083;52.932;6.674;2024-01-15T07:39:55;2.10;99.90
55213;DHT22;41083;52.932;6.674;2024-01-15T07:42:21;2.10;99.90
55213;DHT22;41083;52.932;6.674;2024-01-15T07:44:47;2.10;99.90
55213;DHT22;41083;52.932;6.674;2024-01-15T07:47:12;2.10;99.90
55213;DHT22;41083;52.932;6.674;2024-01-15T07:49:38;2.10;99.90
55213;DHT22;41083;52.932;6.674;2024-01-15T07:52:04;2.00;99.90
55213;DHT22;41083;52.932;6.674;2024-01-15T07:54:33;2.00;99.90
55213;DHT22;41083;52.932;6.674;2024-01-15T07:57:02;2.00;99.90
55213;DHT22;41083;52.932;6.674;2024-01-15T07:59:31;2.00;99.90
55213;DHT22;41083;52.932;6.674;2024-01-15T08:01:59;2.00;99.90
55213;DHT22;41083;52.932;6.674;2024-01-15T08:04:24;2.00;99.90
55213;DHT22;41083;52.932;6.674;2024-01-15T08:06:50;2.10;99.90
55213;DHT22;41083;52.932;6.674;2024-01-15T08:09:16;2.10;99.90
55213;DHT22;41083;52.932;6.674;2024-01-15T08:11:43;2.20;99.90
55213;DHT22;41083;52.932;6.674;2024-01-15T08:14:09;2.10;99.90
55213;DHT22;41083;52.932;6.674;2024-01-15T08:16:38;2.20;99.90
55213;DHT22;41083;52.932;6.674;2024-01-15T08:19:04;2.20;99.90
55213;DHT22;41083;52.932;6.674;2024-01-15T08:21:30;2.20;99.90
55213;DHT22;41083;52.932;6.674;2024-01-15T08:24:00;2.30;99.90
55213;DHT22;41083;52.932;6.674;2024-01-15T08:26:26;2.30;99.90
55213;DHT22;41083;52.932;6.674;2024-01-15T08:28:53;2.30;99.90
55213;DHT22;41083;52.932;6.674;2024-01-15T08:31:18;2.40;99.90
55213;DHT22;41083;52.932;6.674;2024-01-15T08:33:44;2.40;99.90
55213;DHT22;41083;52.932;6.674;2024-01-15T08:36:10;2.40;99.90
55213;DHT22;41083;52.932;6.674;2024-01-15T08:38:36;2.30;99.90
55213;DHT22;41083;52.932;6.674;2024-01-15T08:41:01;2.30;99.90
55213;DHT22;41083;52.932;6.674;2024-01-15T08:43:27;2.30;99.90
55213;DHT22;41083;52.932;6.674;2024-01-15T08:45:53;2.30;99.90
55213;DHT22;41083;52.932;6.674;2024-01-15T08:48:19;2.30;99.90
55213;DHT22;41083;52.932;6.674;2024-01-15T08:50:45;2.30;99.90
55213;DHT22;41083;52.932;6.674;2024-01-15T08:53:13;2.40;99.90
55213;DHT22;41083;52.932;6.674;2024-01-15T08:55:39;2.30;99.90
55213;DHT22;41083;52.932;6.674;2024-01-15T08:58:08;2.40;99.90
55213;DHT22;41083;52.932;6.674;2024-01-15T09:00:34;2.40;99.90
55213;DHT22;41083;52.932;6.674;2024-01-15T09:02:59;2.40;99.90
55213;DHT22;41083;52.932;6.674;2024-01-15T09:05:25;2.40;99.90
55213;DHT22;41083;52.932;6.674;2024-01-15T09:07:52;2.40;99.90
55213;DHT22;41083;52.932;6.674;2024-01-15T09:10:18;2.40;99.90
55213;DHT22;41083;52.932;6.674;2024-01-15T09:12:44;2.50;99.90
55213;DHT22;41083;52.932;6.674;2024-01-15T09:15:10;2.50;99.90
55213;DHT22;41083;52.932;6.674;2024-01-15T09:17:36;2.50;99.90
55213;DHT22;41083;52.932;6.674;2024-01-15T09:20:02;2.60;99.90
55213;DHT22;41083;52.932;6.674;2024-01-15T09:22:29;2.60;99.90
55213;DHT22;41083;52.932;6.674;2024-01-15T09:24:55;2.70;99.90
55213;DHT22;41083;52.932;6.674;2024-01-15T09:27:21;2.70;99.90
55213;DHT22;41083;52.932;6.674;2024-01-15T09:29:46;2.70;99.90
55213;DHT22;41083;52.932;6.674;2024-01-15T09:32:12;2.70;99.90
55213;DHT22;41083;52.932;6.674;2024-01-15T09:34:38;2.70;99.90
55213;DHT22;41083;52.932;6.674;2024-01-15T09:37:04;2.70;99.90
55213;DHT22;41083;52.932;6.674;2024-01-15T09:39:30;2.70;99.90
55213;DHT22;41083;52.932;6.674;2024-01-15T09:41:57;2.70;99.90
55213;DHT22;41083;52.932;6.674;2024-01-15T09:44:23;2.70;99.90
55213;DHT22;41083;52.932;6.674;2024-01-15T09:46:49;2.70;99.90
55213;DHT22;41083;52.932;6.674;2024-01-15T09:49:18;2.70;99.90
55213;DHT22;41083;52.932;6.674;2024-01-15T09:51:45;2.70;99.90
55213;DHT22;41083;52.932;6.674;2024-01-15T09:54:11;2.70;99.90
55213;DHT22;41083;52.932;6.674;2024-01-15T09:56:39;2.80;99.90
55213;DHT22;41083;52.932;6.674;2024-01-15T09:59:05;2.80;99.90
55213;DHT22;41083;52.932;6.674;2024-01-15T10:01:32;2.80;99.90
55213;DHT22;41083;52.932;6.674;2024-01-15T10:03:59;2.80;99.90
55213;DHT22;41083;52.932;6.674;2024-01-15T10:06:27;2.90;99.90
55213;DHT22;41083;52.932;6.674;2024-01-15T10:08:57;2.90;99.90
55213;DHT22;41083;52.932;6.674;2024-01-15T10:11:24;2.90;99.90
55213;DHT22;41083;52.932;6.674;2024-01-15T10:13:49;2.90;99.90
55213;DHT22;41083;52.932;6.674;2024-01-15T10:16:21;2.80;99.90
55213;DHT22;41083;52.932;6.674;2024-01-15T10:18:49;2.80;99.90
55213;DHT22;41083;52.932;6.674;2024-01-15T10:21:15;2.80;99.90
55213;DHT22;41083;52.932;6.674;2024-01-15T10:23:41;2.80;99.90
55213;DHT22;41083;52.932;6.674;2024-01-15T10:26:07;2.90;99.90
55213;DHT22;41083;52.932;6.674;2024-01-15T10:28:33;2.90;99.90
55213;DHT22;41083;52.932;6.674;2024-01-15T10:31:00;2.90;99.90
55213;DHT22;41083;52.932;6.674;2024-01-15T10:33:26;3.00;99.90
55213;DHT22;41083;52.932;6.674;2024-01-15T10:35:56;3.00;99.90
55213;DHT22;41083;52.932;6.674;2024-01-15T10:38:23;3.10;99.90
55213;DHT22;41083;52.932;6.674;2024-01-15T10:40:55;3.10;99.90
55213;DHT22;41083;52.932;6.674;2024-01-15T10:43:23;3.10;99.90
55213;DHT22;41083;52.932;6.674;2024-01-15T10:45:50;3.20;99.90
55213;DHT22;41083;52.932;6.674;2024-01-15T10:48:17;3.20;99.90
55213;DHT22;41083;52.932;6.674;2024-01-15T10:50:45;3.30;99.90
55213;DHT22;41083;52.932;6.674;2024-01-15T10:53:13;3.30;99.90
55213;DHT22;41083;52.932;6.674;2024-01-15T10:55:41;3.20;99.90
55213;DHT22;41083;52.932;6.674;2024-01-15T10:58:08;3.20;99.90
55213;DHT22;41083;52.932;6.674;2024-01-15T11:00:35;3.20;99.90
55213;DHT22;41083;52.932;6.674;2024-01-15T11:03:03;3.10;99.90
55213;DHT22;41083;52.932;6.674;2024-01-15T11:05:51;3.10;99.90
55213;DHT22;41083;52.932;6.674;2024-01-15T11:08:18;3.10;99.90
55213;DHT22;41083;52.932;6.674;2024-01-15T11:10:47;3.10;99.90
55213;DHT22;41083;52.932;6.674;2024-01-15T11:16:07;3.00;99.90
55213;DHT22;41083;52.932;6.674;2024-01-15T11:18:43;2.90;99.90
55213;DHT22;41083;52.932;6.674;2024-01-15T11:21:26;2.90;99.90
55213;DHT22;41083;52.932;6.674;2024-01-15T11:23:57;2.90;99.90
55213;DHT22;41083;52.932;6.674;2024-01-15T11:29:01;2.90;99.90
55213;DHT22;41083;52.932;6.674;2024-01-15T11:34:05;3.00;99.90
55213;DHT22;41083;52.932;6.674;2024-01-15T11:42:00;3.00;99.90
55213;DHT22;41083;52.932;6.674;2024-01-15T11:44:27;3.10;99.90
55213;DHT22;41083;52.932;6.674;2024-01-15T11:47:06;3.10;99.90
55213;DHT22;41083;52.932;6.674;2024-01-15T11:50:01;3.10;99.90
55213;DHT22;41083;52.932;6.674;2024-01-15T11:52:32;3.10;99.90
55213;DHT22;41083;52.932;6.674;2024-01-15T11:55:22;3.10;99.90
55213;DHT22;41083;52.932;6.674;2024-01-15T11:57:52;3.00;99.90
55213;DHT22;41083;52.932;6.674;2024-01-15T12:00:20;3.00;99.90
55213;DHT22;41083;52.932;6.674;2024-01-15T12:02:47;2.90;99.90
55213;DHT22;41083;52.932;6.674;2024-01-15T12:05:15;2.80;99.90
55213;DHT22;41083;52.932;6.674;2024-01-15T12:07:42;2.70;99.90
55213;DHT22;41083;52.932;6.674;2024-01-15T12:12:56;2.50;99.90
55213;DHT22;41083;52.932;6.674;2024-01-15T12:15:23;2.50;99.90
55213;DHT22;41083;52.932;6.674;2024-01-15T12:17:49;2.40;99.90
55213;DHT22;41083;52.932;6.674;2024-01-15T12:20:15;2.40;99.90
55213;DHT22;41083;52.932;6.674;2024-01-15T12:22:44;2.40;99.90
55213;DHT22;41083;52.932;6.674;2024-01-15T12:25:10;2.30;99.90
55213;DHT22;41083;52.932;6.674;2024-01-15T12:27:36;2.20;99.90
55213;DHT22;41083;52.932;6.674;2024-01-15T12:30:02;2.20;99.90
55213;DHT22;41083;52.932;6.674;2024-01-15T12:32:29;2.20;99.90
55213;DHT22;41083;52.932;6.674;2024-01-15T12:34:55;2.20;99.90
55213;DHT22;41083;52.932;6.674;2024-01-15T12:37:21;2.20;99.90
55213;DHT22;41083;52.932;6.674;2024-01-15T12:39:47;2.30;99.90
55213;DHT22;41083;52.932;6.674;2024-01-15T12:42:14;2.30;99.90
55213;DHT22;41083;52.932;6.674;2024-01-15T12:44:42;2.30;99.90
55213;DHT22;41083;52.932;6.674;2024-01-15T12:47:08;2.30;99.90
55213;DHT22;41083;52.932;6.674;2024-01-15T12:49:39;2.30;99.90
55213;DHT22;41083;52.932;6.674;2024-01-15T12:52:08;2.30;99.90
55213;DHT22;41083;52.932;6.674;2024-01-15T12:54:34;2.40;99.90
55213;DHT22;41083;52.932;6.674;2024-01-15T12:57:00;2.40;99.90
55213;DHT22;41083;52.932;6.674;2024-01-15T12:59:25;2.40;99.90
55213;DHT22;41083;52.932;6.674;2024-01-15T13:01:51;2.40;99.90
55213;DHT22;41083;52.932;6.674;2024-01-15T13:04:24;2.40;99.90
55213;DHT22;41083;52.932;6.674;2024-01-15T13:06:50;2.40;99.90
55213;DHT22;41083;52.932;6.674;2024-01-15T13:09:17;2.50;99.90
55213;DHT22;41083;52.932;6.674;2024-01-15T13:11:46;2.40;99.90
55213;DHT22;41083;52.932;6.674;2024-01-15T13:14:12;2.40;99.90
55213;DHT22;41083;52.932;6.674;2024-01-15T13:16:41;2.50;99.90
55213;DHT22;41083;52.932;6.674;2024-01-15T13:19:09;2.50;99.90
55213;DHT22;41083;52.932;6.674;2024-01-15T13:21:40;2.50;99.90
55213;DHT22;41083;52.932;6.674;2024-01-15T13:24:06;2.50;99.90
55213;DHT22;41083;52.932;6.674;2024-01-15T13:26:35;2.60;99.90
55213;DHT22;41083;52.932;6.674;2024-01-15T13:29:03;2.60;99.90
55213;DHT22;41083;52.932;6.674;2024-01-15T13:31:33;2.60;99.90
55213;DHT22;41083;52.932;6.674;2024-01-15T13:33:59;2.70;99.90
55213;DHT22;41083;52.932;6.674;2024-01-15T13:36:28;2.70;99.90
55213;DHT22;41083;52.932;6.674;2024-01-15T13:38:54;2.70;99.90
55213;DHT22;41083;52.932;6.674;2024-01-15T13:41:21;2.60;99.90
55213;DHT22;41083;52.932;6.674;2024-01-15T13:43:54;2.40;99.90
55213;DHT22;41083;52.932;6.674;2024-01-15T13:46:23;2.20;99.90
55213;DHT22;41083;52.932;6.674;2024-01-15T13:48:48;2.10;99.90
55213;DHT22;41083;52.932;6.674;2024-01-15T13:51:14;2.00;99.90
55213;DHT22;41083;52.932;6.674;2024-01-15T13:53:40;2.00;99.90
55213;DHT22;41083;52.932;6.674;2024-01-15T13:56:06;2.10;99.90
55213;DHT22;41083;52.932;6.674;2024-01-15T13:58:32;2.10;99.90
55213;DHT22;41083;52.932;6.674;2024-01-15T14:01:01;2.10;99.90
55213;DHT22;41083;52.932;6.674;2024-01-15T14:03:27;2.00;99.90
55213;DHT22;41083;52.932;6.674;2024-01-15T14:05:53;2.10;99.90
55213;DHT22;41083;52.932;6.674;2024-01-15T14:08:19;2.10;99.90
55213;DHT22;41083;52.932;6.674;2024-01-15T14:10:45;2.10;99.90
55213;DHT22;41083;52.932;6.674;2024-01-15T14:13:10;2.10;99.90
55213;DHT22;41083;52.932;6.674;2024-01-15T14:15:36;2.10;99.90
55213;DHT22;41083;52.932;6.674;2024-01-15T14:18:02;2.10;99.90
55213;DHT22;41083;52.932;6.674;2024-01-15T14:20:28;2.10;99.90
55213;DHT22;41083;52.932;6.674;2024-01-15T14:22:54;2.20;99.90
55213;DHT22;41083;52.932;6.674;2024-01-15T14:25:20;2.20;99.90
55213;DHT22;41083;52.932;6.674;2024-01-15T14:27:47;2.30;99.90
55213;DHT22;41083;52.932;6.674;2024-01-15T14:30:13;2.30;99.90
55213;DHT22;41083;52.932;6.674;2024-01-15T14:32:39;2.30;99.90
55213;DHT22;41083;52.932;6.674;2024-01-15T14:35:05;2.30;99.90
55213;DHT22;41083;52.932;6.674;2024-01-15T14:37:33;2.30;99.90
55213;DHT22;41083;52.932;6.674;2024-01-15T14:39:59;2.40;99.90
55213;DHT22;41083;52.932;6.674;2024-01-15T14:42:24;2.30;99.90
55213;DHT22;41083;52.932;6.674;2024-01-15T14:44:52;2.30;99.90
55213;DHT22;41083;52.932;6.674;2024-01-15T14:47:18;2.30;99.90
55213;DHT22;41083;52.932;6.674;2024-01-15T14:49:44;2.20;99.90
55213;DHT22;41083;52.932;6.674;2024-01-15T14:52:10;2.20;99.90
55213;DHT22;41083;52.932;6.674;2024-01-15T14:54:35;2.20;99.90
55213;DHT22;41083;52.932;6.674;2024-01-15T14:57:01;2.20;99.90
55213;DHT22;41083;52.932;6.674;2024-01-15T14:59:27;2.20;99.90
55213;DHT22;41083;52.932;6.674;2024-01-15T15:01:54;2.20;99.90
55213;DHT22;41083;52.932;6.674;2024-01-15T15:04:22;2.20;99.90
55213;DHT22;41083;52.932;6.674;2024-01-15T15:06:48;2.20;99.90
55213;DHT22;41083;52.932;6.674;2024-01-15T15:09:13;2.20;99.90
55213;DHT22;41083;52.932;6.674;2024-01-15T15:11:39;2.20;99.90
55213;DHT22;41083;52.932;6.674;2024-01-15T15:14:05;2.20;99.90
55213;DHT22;41083;52.932;6.674;2024-01-15T15:16:30;2.20;99.90
55213;DHT22;41083;52.932;6.674;2024-01-15T15:18:56;2.20;99.90
55213;DHT22;41083;52.932;6.674;2024-01-15T15:21:22;2.20;99.90
55213;DHT22;41083;52.932;6.674;2024-01-15T15:23:47;2.20;99.90
55213;DHT22;41083;52.932;6.674;2024-01-15T15:26:13;2.20;99.90
55213;DHT22;41083;52.932;6.674;2024-01-15T15:28:39;2.20;99.90
55213;DHT22;41083;52.932;6.674;2024-01-15T15:31:06;2.20;99.90
55213;DHT22;41083;52.932;6.674;2024-01-15T15:33:36;2.20;99.90
55213;DHT22;41083;52.932;6.674;2024-01-15T15:36:02;2.20;99.90
55213;DHT22;41083;52.932;6.674;2024-01-15T15:38:33;2.10;99.90
55213;DHT22;41083;52.932;6.674;2024-01-15T15:40:59;2.10;99.90
55213;DHT22;41083;52.932;6.674;2024-01-15T15:43:26;2.10;99.90
55213;DHT22;41083;52.932;6.674;2024-01-15T15:45:52;2.10;99.90
55213;DHT22;41083;52.932;6.674;2024-01-15T15:48:18;2.10;99.90
55213;DHT22;41083;52.932;6.674;2024-01-15T15:50:43;2.00;99.90
55213;DHT22;41083;52.932;6.674;2024-01-15T15:53:09;2.00;99.90
55213;DHT22;41083;52.932;6.674;2024-01-15T15:55:35;2.00;99.90
55213;DHT22;41083;52.932;6.674;2024-01-15T15:58:04;2.00;99.90
55213;DHT22;41083;52.932;6.674;2024-01-15T16:00:31;2.00;99.90